createdAt,value
2018-07-14T00:01:20.000Z,100761
2018-07-14T00:02:20.000Z,100756
2018-07-14T00:04:20.000Z,100758
2018-07-14T00:06:20.000Z,100760
2018-07-14T00:08:20.000Z,100760
2018-07-14T00:10:20.000Z,100762
2018-07-14T00:11:20.000Z,100763
2018-07-14T00:13:20.000Z,100762
2018-07-14T00:15:05.000Z,100758
2018-07-14T00:16:20.000Z,100754
2018-07-14T00:18:20.000Z,100762
2018-07-14T00:20:20.000Z,100760
2018-07-14T00:22:05.000Z,100759
2018-07-14T00:23:20.000Z,100757
2018-07-14T00:25:20.000Z,100759
2018-07-14T00:26:20.000Z,100759
2018-07-14T00:27:20.000Z,100757
2018-07-14T00:29:20.000Z,100754
2018-07-14T00:31:20.000Z,100747
2018-07-14T00:33:20.000Z,100748
2018-07-14T00:35:20.000Z,100762
2018-07-14T00:36:20.000Z,100752
2018-07-14T00:37:20.000Z,100753
2018-07-14T00:39:20.000Z,100751
2018-07-14T00:41:20.000Z,100757
2018-07-14T00:43:20.000Z,100757
2018-07-14T00:45:20.000Z,100757
2018-07-14T00:47:20.000Z,100755
2018-07-14T00:49:05.000Z,100752
2018-07-14T00:50:20.000Z,100757
2018-07-14T00:52:05.000Z,100750
2018-07-14T00:53:20.000Z,100751
2018-07-14T00:55:20.000Z,100751
2018-07-14T00:57:20.000Z,100758
2018-07-14T00:58:20.000Z,100750
2018-07-14T01:00:20.000Z,100752
2018-07-14T01:02:20.000Z,100755
2018-07-14T01:04:20.000Z,100754
2018-07-14T01:06:20.000Z,100759
2018-07-14T01:08:20.000Z,100760
2018-07-14T01:10:20.000Z,100757
2018-07-14T01:11:20.000Z,100758
2018-07-14T01:13:20.000Z,100753
2018-07-14T01:14:20.000Z,100756
2018-07-14T01:16:20.000Z,100754
2018-07-14T01:18:20.000Z,100754
2018-07-14T01:19:20.000Z,100755
2018-07-14T01:21:20.000Z,100757
2018-07-14T01:22:20.000Z,100756
2018-07-14T01:23:20.000Z,100756
2018-07-14T01:25:20.000Z,100761
2018-07-14T01:26:50.000Z,100758
2018-07-14T01:28:20.000Z,100759
2018-07-14T01:29:20.000Z,100757
2018-07-14T01:31:05.000Z,100761
2018-07-14T01:32:20.000Z,100765
2018-07-14T01:33:20.000Z,100764
2018-07-14T01:34:20.000Z,100761
2018-07-14T01:36:20.000Z,100765
2018-07-14T01:37:20.000Z,100757
2018-07-14T01:39:20.000Z,100764
2018-07-14T01:40:20.000Z,100757
2018-07-14T01:41:20.000Z,100758
2018-07-14T01:43:05.000Z,100760
2018-07-14T01:44:21.000Z,100759
2018-07-14T01:45:21.000Z,100760
2018-07-14T01:47:21.000Z,100759
2018-07-14T01:49:21.000Z,100761
2018-07-14T01:50:21.000Z,100756
2018-07-14T01:52:21.000Z,100760
2018-07-14T01:54:05.000Z,100761
2018-07-14T01:55:21.000Z,100759
2018-07-14T01:57:21.000Z,100757
2018-07-14T01:59:21.000Z,100767
2018-07-14T02:01:21.000Z,100765
2018-07-14T02:02:21.000Z,100761
2018-07-14T02:04:21.000Z,100760
2018-07-14T02:05:21.000Z,100764
2018-07-14T02:07:21.000Z,100764
2018-07-14T02:08:21.000Z,100770
2018-07-14T02:10:21.000Z,100762
2018-07-14T02:11:21.000Z,100764
2018-07-14T02:13:21.000Z,100761
2018-07-14T02:15:05.000Z,100760
2018-07-14T02:16:21.000Z,100762
2018-07-14T02:18:21.000Z,100769
2018-07-14T02:20:21.000Z,100769
2018-07-14T02:22:21.000Z,100770
2018-07-14T02:24:05.000Z,100765
2018-07-14T02:25:21.000Z,100769
2018-07-14T02:26:21.000Z,100767
2018-07-14T02:28:21.000Z,100767
2018-07-14T02:30:21.000Z,100771
2018-07-14T02:32:21.000Z,100773
2018-07-14T02:34:21.000Z,100775
2018-07-14T02:36:21.000Z,100774
2018-07-14T02:38:21.000Z,100775
2018-07-14T02:39:21.000Z,100778
2018-07-14T02:41:21.000Z,100786
2018-07-14T02:43:21.000Z,100781
2018-07-14T02:45:21.000Z,100782
2018-07-14T02:47:21.000Z,100777
2018-07-14T02:48:21.000Z,100781
2018-07-14T02:50:21.000Z,100780
2018-07-14T02:52:21.000Z,100783
2018-07-14T02:54:21.000Z,100785
2018-07-14T02:55:21.000Z,100791
2018-07-14T02:57:21.000Z,100788
2018-07-14T02:59:05.000Z,100788
2018-07-14T03:00:21.000Z,100788
2018-07-14T03:02:21.000Z,100788
2018-07-14T03:04:21.000Z,100791
2018-07-14T03:06:21.000Z,100791
2018-07-14T03:07:21.000Z,100786
2018-07-14T03:09:21.000Z,100787
2018-07-14T03:10:21.000Z,100783
2018-07-14T03:12:21.000Z,100778
2018-07-14T03:13:21.000Z,100780
2018-07-14T03:15:21.000Z,100780
2018-07-14T03:16:21.000Z,100780
2018-07-14T03:18:21.000Z,100777
2018-07-14T03:19:21.000Z,100781
2018-07-14T03:21:21.000Z,100774
2018-07-14T03:22:21.000Z,100777
2018-07-14T03:24:21.000Z,100772
2018-07-14T03:25:21.000Z,100773
2018-07-14T03:26:21.000Z,100766
2018-07-14T03:28:21.000Z,100763
2018-07-14T03:29:21.000Z,100771
2018-07-14T03:31:05.000Z,100773
2018-07-14T03:32:21.000Z,100770
2018-07-14T03:34:05.000Z,100770
2018-07-14T03:35:21.000Z,100774
2018-07-14T03:36:21.000Z,100771
2018-07-14T03:38:21.000Z,100773
2018-07-14T03:40:21.000Z,100773
2018-07-14T03:41:21.000Z,100766
2018-07-14T03:43:21.000Z,100766
2018-07-14T03:45:21.000Z,100766
2018-07-14T03:46:21.000Z,100769
2018-07-14T03:47:21.000Z,100766
2018-07-14T03:49:20.000Z,100770
2018-07-14T03:50:20.000Z,100764
2018-07-14T03:51:20.000Z,100761
2018-07-14T03:53:20.000Z,100766
2018-07-14T03:55:20.000Z,100764
2018-07-14T03:56:20.000Z,100765
2018-07-14T03:58:20.000Z,100767
2018-07-14T04:00:05.000Z,100765
2018-07-14T04:01:05.000Z,100766
2018-07-14T04:02:20.000Z,100762
2018-07-14T04:04:20.000Z,100768
2018-07-14T04:05:20.000Z,100768
2018-07-14T04:07:05.000Z,100767
2018-07-14T04:08:20.000Z,100766
2018-07-14T04:09:20.000Z,100761
2018-07-14T04:10:20.000Z,100762
2018-07-14T04:12:20.000Z,100760
2018-07-14T04:14:20.000Z,100760
2018-07-14T04:16:20.000Z,100764
2018-07-14T04:18:20.000Z,100766
2018-07-14T04:19:20.000Z,100771
2018-07-14T04:21:20.000Z,100767
2018-07-14T04:23:20.000Z,100774
2018-07-14T04:24:50.000Z,100773
2018-07-14T04:26:20.000Z,100770
2018-07-14T04:28:05.000Z,100769
2018-07-14T04:29:20.000Z,100772
2018-07-14T04:31:20.000Z,100772
2018-07-14T04:32:20.000Z,100769
2018-07-14T04:34:20.000Z,100768
2018-07-14T04:35:20.000Z,100771
2018-07-14T04:36:20.000Z,100769
2018-07-14T04:38:05.000Z,100774
2018-07-14T04:39:20.000Z,100771
2018-07-14T04:41:20.000Z,100771
2018-07-14T04:42:20.000Z,100775
2018-07-14T04:44:20.000Z,100778
2018-07-14T04:46:20.000Z,100778
2018-07-14T04:47:20.000Z,100776
2018-07-14T04:49:20.000Z,100776
2018-07-14T04:51:05.000Z,100776
2018-07-14T04:52:20.000Z,100776
2018-07-14T04:54:21.000Z,100774
2018-07-14T04:56:21.000Z,100779
2018-07-14T04:58:20.000Z,100773
2018-07-14T05:00:21.000Z,100781
2018-07-14T05:02:21.000Z,100777
2018-07-14T05:03:21.000Z,100779
2018-07-14T05:05:21.000Z,100775
2018-07-14T05:06:21.000Z,100774
2018-07-14T05:08:21.000Z,100772
2018-07-14T05:09:21.000Z,100772
2018-07-14T05:11:21.000Z,100772
2018-07-14T05:12:21.000Z,100775
2018-07-14T05:14:21.000Z,100772
2018-07-14T05:16:05.000Z,100775
2018-07-14T05:17:21.000Z,100774
2018-07-14T05:19:21.000Z,100778
2018-07-14T05:20:21.000Z,100774
2018-07-14T05:22:21.000Z,100779
2018-07-14T05:24:21.000Z,100778
2018-07-14T05:25:21.000Z,100774
2018-07-14T05:27:21.000Z,100780
2018-07-14T05:28:21.000Z,100779
2018-07-14T05:30:21.000Z,100779
2018-07-14T05:31:21.000Z,100775
2018-07-14T05:33:21.000Z,100781
2018-07-14T05:34:21.000Z,100776
2018-07-14T05:36:21.000Z,100781
2018-07-14T05:38:05.000Z,100779
2018-07-14T05:39:21.000Z,100781
2018-07-14T05:41:21.000Z,100782
2018-07-14T05:42:21.000Z,100779
2018-07-14T05:44:21.000Z,100778
2018-07-14T05:46:21.000Z,100781
2018-07-14T05:47:21.000Z,100776
2018-07-14T05:49:21.000Z,100775
2018-07-14T05:51:21.000Z,100777
2018-07-14T05:52:21.000Z,100777
2018-07-14T05:54:05.000Z,100786
2018-07-14T05:55:21.000Z,100787
2018-07-14T05:57:21.000Z,100788
2018-07-14T05:59:21.000Z,100788
2018-07-14T06:00:21.000Z,100788
2018-07-14T06:02:05.000Z,100792
2018-07-14T06:03:21.000Z,100791
2018-07-14T06:04:21.000Z,100793
2018-07-14T06:06:05.000Z,100787
2018-07-14T06:07:21.000Z,100786
2018-07-14T06:09:21.000Z,100789
2018-07-14T06:11:21.000Z,100785
2018-07-14T06:13:21.000Z,100792
2018-07-14T06:14:21.000Z,100793
2018-07-14T06:15:21.000Z,100794
2018-07-14T06:16:21.000Z,100795
2018-07-14T06:17:21.000Z,100794
2018-07-14T06:19:21.000Z,100793
2018-07-14T06:21:21.000Z,100792
2018-07-14T06:23:05.000Z,100800
2018-07-14T06:24:21.000Z,100798
2018-07-14T06:26:05.000Z,100798
2018-07-14T06:27:21.000Z,100795
2018-07-14T06:29:21.000Z,100796
2018-07-14T06:31:21.000Z,100799
2018-07-14T06:32:21.000Z,100800
2018-07-14T06:34:21.000Z,100801
2018-07-14T06:36:21.000Z,100797
2018-07-14T06:37:21.000Z,100797
2018-07-14T06:38:21.000Z,100802
2018-07-14T06:39:21.000Z,100802
2018-07-14T06:41:21.000Z,100806
2018-07-14T06:42:21.000Z,100803
2018-07-14T06:44:21.000Z,100803
2018-07-14T06:46:21.000Z,100803
2018-07-14T06:48:21.000Z,100801
2018-07-14T06:50:21.000Z,100811
2018-07-14T06:51:50.000Z,100801
2018-07-14T06:53:21.000Z,100804
2018-07-14T06:54:21.000Z,100803
2018-07-14T06:55:21.000Z,100804
2018-07-14T06:56:21.000Z,100799
2018-07-14T06:58:05.000Z,100806
2018-07-14T06:59:21.000Z,100809
2018-07-14T07:00:20.000Z,100805
2018-07-14T07:01:20.000Z,100805
2018-07-14T07:03:20.000Z,100807
2018-07-14T07:05:20.000Z,100807
2018-07-14T07:07:05.000Z,100807
2018-07-14T07:08:20.000Z,100807
2018-07-14T07:10:20.000Z,100802
2018-07-14T07:12:05.000Z,100805
2018-07-14T07:13:20.000Z,100810
2018-07-14T07:15:20.000Z,100809
2018-07-14T07:17:05.000Z,100815
2018-07-14T07:18:20.000Z,100816
2018-07-14T07:20:20.000Z,100822
2018-07-14T07:21:20.000Z,100822
2018-07-14T07:23:20.000Z,100823
2018-07-14T07:25:20.000Z,100824
2018-07-14T07:26:50.000Z,100833
2018-07-14T07:28:20.000Z,100824
2018-07-14T07:30:20.000Z,100825
2018-07-14T07:32:20.000Z,100827
2018-07-14T07:34:20.000Z,100831
2018-07-14T07:36:20.000Z,100827
2018-07-14T07:37:20.000Z,100829
2018-07-14T07:39:20.000Z,100826
2018-07-14T07:41:20.000Z,100830
2018-07-14T07:43:20.000Z,100821
2018-07-14T07:45:20.000Z,100825
2018-07-14T07:47:20.000Z,100826
2018-07-14T07:48:20.000Z,100829
2018-07-14T07:50:20.000Z,100824
2018-07-14T07:51:20.000Z,100828
2018-07-14T07:53:20.000Z,100823
2018-07-14T07:54:20.000Z,100817
2018-07-14T07:56:05.000Z,100819
2018-07-14T07:57:20.000Z,100815
2018-07-14T07:59:05.000Z,100817
2018-07-14T08:00:20.000Z,100812
2018-07-14T08:01:20.000Z,100815
2018-07-14T08:03:20.000Z,100813
2018-07-14T08:04:21.000Z,100809
2018-07-14T08:06:21.000Z,100814
2018-07-14T08:07:21.000Z,100814
2018-07-14T08:09:21.000Z,100812
2018-07-14T08:11:21.000Z,100809
2018-07-14T08:13:21.000Z,100817
2018-07-14T08:15:21.000Z,100816
2018-07-14T08:17:21.000Z,100814
2018-07-14T08:19:06.000Z,100813
2018-07-14T08:20:21.000Z,100815
2018-07-14T08:22:21.000Z,100813
2018-07-14T08:23:21.000Z,100810
2018-07-14T08:24:21.000Z,100818
2018-07-14T08:26:21.000Z,100817
2018-07-14T08:28:21.000Z,100813
2018-07-14T08:30:06.000Z,100815
2018-07-14T08:31:21.000Z,100821
2018-07-14T08:32:21.000Z,100822
2018-07-14T08:33:21.000Z,100817
2018-07-14T08:35:21.000Z,100815
2018-07-14T08:37:21.000Z,100813
2018-07-14T08:39:21.000Z,100809
2018-07-14T08:40:21.000Z,100810
2018-07-14T08:42:21.000Z,100810
2018-07-14T08:44:21.000Z,100808
2018-07-14T08:46:21.000Z,100814
2018-07-14T08:48:21.000Z,100815
2018-07-14T08:50:21.000Z,100818
2018-07-14T08:51:21.000Z,100817
2018-07-14T08:53:21.000Z,100827
2018-07-14T08:54:21.000Z,100826
2018-07-14T08:55:21.000Z,100823
2018-07-14T08:57:21.000Z,100828
2018-07-14T08:58:21.000Z,100825
2018-07-14T09:00:21.000Z,100824
2018-07-14T09:02:21.000Z,100820
2018-07-14T09:04:06.000Z,100825
2018-07-14T09:05:21.000Z,100825
2018-07-14T09:07:21.000Z,100825
2018-07-14T09:08:21.000Z,100829
2018-07-14T09:10:21.000Z,100822
2018-07-14T09:11:21.000Z,100823
2018-07-14T09:13:06.000Z,100821
2018-07-14T09:14:21.000Z,100823
2018-07-14T09:15:21.000Z,100816
2018-07-14T09:16:21.000Z,100820
2018-07-14T09:18:21.000Z,100817
2018-07-14T09:20:21.000Z,100812
2018-07-14T09:22:21.000Z,100817
2018-07-14T09:24:21.000Z,100812
2018-07-14T09:26:06.000Z,100818
2018-07-14T09:27:21.000Z,100813
2018-07-14T09:29:21.000Z,100808
2018-07-14T09:30:21.000Z,100806
2018-07-14T09:32:21.000Z,100805
2018-07-14T09:34:21.000Z,100803
2018-07-14T09:36:06.000Z,100804
2018-07-14T09:37:21.000Z,100801
2018-07-14T09:38:21.000Z,100803
2018-07-14T09:39:21.000Z,100801
2018-07-14T09:41:21.000Z,100800
2018-07-14T09:42:21.000Z,100798
2018-07-14T09:44:21.000Z,100795
2018-07-14T09:46:21.000Z,100793
2018-07-14T09:48:21.000Z,100791
2018-07-14T09:50:21.000Z,100798
2018-07-14T09:52:21.000Z,100794
2018-07-14T09:54:06.000Z,100790
2018-07-14T09:55:21.000Z,100796
2018-07-14T09:56:21.000Z,100792
2018-07-14T09:57:21.000Z,100791
2018-07-14T09:59:21.000Z,100792
2018-07-14T10:00:21.000Z,100792
2018-07-14T10:02:21.000Z,100784
2018-07-14T10:04:21.000Z,100785
2018-07-14T10:05:21.000Z,100787
2018-07-14T10:07:21.000Z,100783
2018-07-14T10:08:21.000Z,100776
2018-07-14T10:10:21.000Z,100779
2018-07-14T10:12:21.000Z,100779
2018-07-14T10:14:21.000Z,100779
2018-07-14T10:16:21.000Z,100778
2018-07-14T10:18:21.000Z,100776
2018-07-14T10:20:21.000Z,100770
2018-07-14T10:22:06.000Z,100774
2018-07-14T10:23:21.000Z,100769
2018-07-14T10:25:21.000Z,100771
2018-07-14T10:27:21.000Z,100769
2018-07-14T10:29:21.000Z,100763
2018-07-14T10:31:21.000Z,100765
2018-07-14T10:32:21.000Z,100764
2018-07-14T10:34:21.000Z,100751
2018-07-14T10:35:21.000Z,100757
2018-07-14T10:37:06.000Z,100754
2018-07-14T10:38:21.000Z,100762
2018-07-14T10:39:21.000Z,100760
2018-07-14T10:40:21.000Z,100760
2018-07-14T10:41:21.000Z,100760
2018-07-14T10:43:21.000Z,100758
2018-07-14T10:45:21.000Z,100764
2018-07-14T10:47:21.000Z,100763
2018-07-14T10:48:50.000Z,100760
2018-07-14T10:50:21.000Z,100757
2018-07-14T10:52:21.000Z,100757
2018-07-14T10:53:21.000Z,100754
2018-07-14T10:54:21.000Z,100755
2018-07-14T10:56:21.000Z,100754
2018-07-14T10:58:21.000Z,100749
2018-07-14T11:00:21.000Z,100754
2018-07-14T11:01:21.000Z,100755
2018-07-14T11:03:06.000Z,100756
2018-07-14T11:04:06.000Z,100755
2018-07-14T11:05:21.000Z,100757
2018-07-14T11:06:21.000Z,100755
2018-07-14T11:08:21.000Z,100752
2018-07-14T11:10:21.000Z,100746
2018-07-14T11:11:21.000Z,100743
2018-07-14T11:12:21.000Z,100753
2018-07-14T11:14:21.000Z,100748
2018-07-14T11:15:20.000Z,100748
2018-07-14T11:17:20.000Z,100745
2018-07-14T11:18:20.000Z,100738
2018-07-14T11:20:05.000Z,100734
2018-07-14T11:21:21.000Z,100737
2018-07-14T11:23:20.000Z,100742
2018-07-14T11:25:20.000Z,100746
2018-07-14T11:26:20.000Z,100742
2018-07-14T11:28:20.000Z,100744
2018-07-14T11:30:05.000Z,100739
2018-07-14T11:31:20.000Z,100740
2018-07-14T11:33:20.000Z,100737
2018-07-14T11:34:20.000Z,100732
2018-07-14T11:36:20.000Z,100737
2018-07-14T11:38:21.000Z,100738
2018-07-14T11:40:05.000Z,100733
2018-07-14T11:41:20.000Z,100735
2018-07-14T11:42:20.000Z,100729
2018-07-14T11:43:20.000Z,100736
2018-07-14T11:44:21.000Z,100732
2018-07-14T11:46:21.000Z,100728
2018-07-14T11:48:20.000Z,100721
2018-07-14T11:50:20.000Z,100724
2018-07-14T11:52:20.000Z,100725
2018-07-14T11:53:20.000Z,100725
2018-07-14T11:55:05.000Z,100724
2018-07-14T11:56:05.000Z,100716
2018-07-14T11:57:21.000Z,100720
2018-07-14T11:59:20.000Z,100714
2018-07-14T12:00:20.000Z,100712
2018-07-14T12:01:20.000Z,100708
2018-07-14T12:03:20.000Z,100710
2018-07-14T12:04:20.000Z,100712
2018-07-14T12:05:20.000Z,100708
2018-07-14T12:07:20.000Z,100703
2018-07-14T12:09:05.000Z,100706
2018-07-14T12:10:20.000Z,100702
2018-07-14T12:11:20.000Z,100701
2018-07-14T12:13:20.000Z,100703
2018-07-14T12:15:20.000Z,100694
2018-07-14T12:16:20.000Z,100695
2018-07-14T12:18:05.000Z,100697
2018-07-14T12:19:20.000Z,100689
2018-07-14T12:20:20.000Z,100692
2018-07-14T12:22:20.000Z,100694
2018-07-14T12:24:20.000Z,100687
2018-07-14T12:25:50.000Z,100680
2018-07-14T12:27:20.000Z,100679
2018-07-14T12:29:20.000Z,100681
2018-07-14T12:31:20.000Z,100675
2018-07-14T12:33:20.000Z,100677
2018-07-14T12:34:20.000Z,100672
2018-07-14T12:35:20.000Z,100674
2018-07-14T12:37:05.000Z,100677
2018-07-14T12:38:20.000Z,100673
2018-07-14T12:40:20.000Z,100676
2018-07-14T12:41:20.000Z,100678
2018-07-14T12:42:20.000Z,100670
2018-07-14T12:44:20.000Z,100673
2018-07-14T12:46:05.000Z,100676
2018-07-14T12:47:20.000Z,100672
2018-07-14T12:48:20.000Z,100669
2018-07-14T12:50:20.000Z,100662
2018-07-14T12:52:05.000Z,100659
2018-07-14T12:53:20.000Z,100659
2018-07-14T12:54:20.000Z,100658
2018-07-14T12:56:20.000Z,100661
2018-07-14T12:58:20.000Z,100656
2018-07-14T13:00:05.000Z,100663
2018-07-14T13:01:20.000Z,100662
2018-07-14T13:02:20.000Z,100656
2018-07-14T13:04:20.000Z,100651
2018-07-14T13:06:05.000Z,100651
2018-07-14T13:07:20.000Z,100650
2018-07-14T13:08:20.000Z,100649
2018-07-14T13:10:20.000Z,100650
2018-07-14T13:12:20.000Z,100648
2018-07-14T13:14:20.000Z,100649
2018-07-14T13:15:20.000Z,100645
2018-07-14T13:17:20.000Z,100645
2018-07-14T13:19:20.000Z,100638
2018-07-14T13:21:20.000Z,100634
2018-07-14T13:22:20.000Z,100634
2018-07-14T13:23:20.000Z,100641
2018-07-14T13:25:05.000Z,100631
2018-07-14T13:26:20.000Z,100637
2018-07-14T13:28:20.000Z,100640
2018-07-14T13:30:20.000Z,100638
2018-07-14T13:32:20.000Z,100633
2018-07-14T13:33:20.000Z,100626
2018-07-14T13:35:20.000Z,100630
2018-07-14T13:37:20.000Z,100634
2018-07-14T13:39:20.000Z,100623
2018-07-14T13:40:20.000Z,100623
2018-07-14T13:42:20.000Z,100621
2018-07-14T13:43:20.000Z,100621
2018-07-14T13:45:21.000Z,100618
2018-07-14T13:47:20.000Z,100615
2018-07-14T13:48:20.000Z,100616
2018-07-14T13:50:20.000Z,100620
2018-07-14T13:51:20.000Z,100622
2018-07-14T13:53:20.000Z,100619
2018-07-14T13:55:20.000Z,100608
2018-07-14T13:56:20.000Z,100607
2018-07-14T13:58:05.000Z,100606
2018-07-14T13:59:20.000Z,100607
2018-07-14T14:00:20.000Z,100607
2018-07-14T14:02:20.000Z,100606
2018-07-14T14:04:20.000Z,100607
2018-07-14T14:05:21.000Z,100602
2018-07-14T14:07:20.000Z,100604
2018-07-14T14:08:20.000Z,100596
2018-07-14T14:10:05.000Z,100603
2018-07-14T14:11:05.000Z,100598
2018-07-14T14:12:20.000Z,100597
2018-07-14T14:13:20.000Z,100601
2018-07-14T14:15:20.000Z,100595
2018-07-14T14:17:20.000Z,100594
2018-07-14T14:18:20.000Z,100595
2018-07-14T14:20:20.000Z,100594
2018-07-14T14:21:20.000Z,100595
2018-07-14T14:23:20.000Z,100586
2018-07-14T14:25:20.000Z,100586
2018-07-14T14:27:06.000Z,100582
2018-07-14T14:28:21.000Z,100587
2018-07-14T14:30:21.000Z,100585
2018-07-14T14:31:21.000Z,100586
2018-07-14T14:33:21.000Z,100585
2018-07-14T14:34:21.000Z,100585
2018-07-14T14:36:21.000Z,100580
2018-07-14T14:38:21.000Z,100582
2018-07-14T14:40:21.000Z,100581
2018-07-14T14:42:06.000Z,100582
2018-07-14T14:43:21.000Z,100583
2018-07-14T14:45:06.000Z,100581
2018-07-14T14:47:21.000Z,100578
2018-07-14T14:49:21.000Z,100575
2018-07-14T14:50:21.000Z,100575
2018-07-14T14:52:06.000Z,100575
2018-07-14T14:53:21.000Z,100578
2018-07-14T14:55:21.000Z,100573
2018-07-14T14:57:21.000Z,100573
2018-07-14T14:59:21.000Z,100573
2018-07-14T15:00:21.000Z,100574
2018-07-14T15:01:21.000Z,100571
2018-07-14T15:02:21.000Z,100567
2018-07-14T15:04:21.000Z,100568
2018-07-14T15:06:21.000Z,100565
2018-07-14T15:08:21.000Z,100566
2018-07-14T15:09:21.000Z,100566
2018-07-14T15:11:21.000Z,100562
2018-07-14T15:13:21.000Z,100565
2018-07-14T15:15:21.000Z,100565
2018-07-14T15:17:21.000Z,100560
2018-07-14T15:19:21.000Z,100564
2018-07-14T15:20:50.000Z,100562
2018-07-14T15:22:21.000Z,100567
2018-07-14T15:24:21.000Z,100567
2018-07-14T15:25:21.000Z,100569
2018-07-14T15:27:21.000Z,100565
2018-07-14T15:28:21.000Z,100561
2018-07-14T15:30:20.000Z,100561
2018-07-14T15:31:20.000Z,100560
2018-07-14T15:33:20.000Z,100560
2018-07-14T15:35:20.000Z,100560
2018-07-14T15:36:20.000Z,100558
2018-07-14T15:38:20.000Z,100553
2018-07-14T15:39:20.000Z,100556
2018-07-14T15:41:20.000Z,100556
2018-07-14T15:43:05.000Z,100548
2018-07-14T15:44:20.000Z,100547
2018-07-14T15:45:20.000Z,100552
2018-07-14T15:47:20.000Z,100550
2018-07-14T15:49:20.000Z,100550
2018-07-14T15:51:05.000Z,100553
2018-07-14T15:52:20.000Z,100548
2018-07-14T15:54:20.000Z,100550
2018-07-14T15:56:20.000Z,100549
2018-07-14T15:57:20.000Z,100546
2018-07-14T15:58:20.000Z,100557
2018-07-14T16:00:20.000Z,100551
2018-07-14T16:02:05.000Z,100550
2018-07-14T16:03:20.000Z,100552
2018-07-14T16:04:20.000Z,100548
2018-07-14T16:06:20.000Z,100546
2018-07-14T16:07:50.000Z,100554
2018-07-14T16:09:20.000Z,100550
2018-07-14T16:11:20.000Z,100551
2018-07-14T16:12:20.000Z,100548
2018-07-14T16:14:20.000Z,100550
2018-07-14T16:16:05.000Z,100550
2018-07-14T16:17:20.000Z,100548
2018-07-14T16:19:20.000Z,100546
2018-07-14T16:21:20.000Z,100542
2018-07-14T16:23:05.000Z,100539
2018-07-14T16:24:20.000Z,100536
2018-07-14T16:26:20.000Z,100542
2018-07-14T16:28:20.000Z,100544
2018-07-14T16:30:20.000Z,100541
2018-07-14T16:32:20.000Z,100543
2018-07-14T16:33:20.000Z,100540
2018-07-14T16:35:20.000Z,100541
2018-07-14T16:36:20.000Z,100541
2018-07-14T16:38:20.000Z,100539
2018-07-14T16:39:20.000Z,100541
2018-07-14T16:41:20.000Z,100538
2018-07-14T16:43:20.000Z,100544
2018-07-14T16:45:20.000Z,100537
2018-07-14T16:47:20.000Z,100531
2018-07-14T16:49:20.000Z,100533
2018-07-14T16:50:20.000Z,100537
2018-07-14T16:51:20.000Z,100538
2018-07-14T16:53:20.000Z,100532
2018-07-14T16:55:20.000Z,100530
2018-07-14T16:57:05.000Z,100536
2018-07-14T16:58:20.000Z,100526
2018-07-14T17:00:20.000Z,100533
2018-07-14T17:01:20.000Z,100532
2018-07-14T17:03:05.000Z,100532
2018-07-14T17:04:05.000Z,100530
2018-07-14T17:05:20.000Z,100535
2018-07-14T17:07:05.000Z,100534
2018-07-14T17:08:05.000Z,100531
2018-07-14T17:09:20.000Z,100535
2018-07-14T17:10:20.000Z,100533
2018-07-14T17:12:20.000Z,100535
2018-07-14T17:13:50.000Z,100534
2018-07-14T17:15:20.000Z,100537
2018-07-14T17:16:20.000Z,100535
2018-07-14T17:18:05.000Z,100538
2018-07-14T17:19:20.000Z,100531
2018-07-14T17:21:20.000Z,100534
2018-07-14T17:23:05.000Z,100532
2018-07-14T17:24:20.000Z,100526
2018-07-14T17:25:20.000Z,100524
2018-07-14T17:27:20.000Z,100522
2018-07-14T17:28:20.000Z,100525
2018-07-14T17:30:20.000Z,100532
2018-07-14T17:32:20.000Z,100529
2018-07-14T17:34:20.000Z,100524
2018-07-14T17:36:20.000Z,100527
2018-07-14T17:37:20.000Z,100531
2018-07-14T17:39:05.000Z,100529
2018-07-14T17:40:20.000Z,100531
2018-07-14T17:42:05.000Z,100527
2018-07-14T17:43:20.000Z,100531
2018-07-14T17:45:20.000Z,100522
2018-07-14T17:46:21.000Z,100522
2018-07-14T17:48:20.000Z,100521
2018-07-14T17:49:20.000Z,100521
2018-07-14T17:51:05.000Z,100523
2018-07-14T17:52:20.000Z,100525
2018-07-14T17:53:20.000Z,100525
2018-07-14T17:55:20.000Z,100519
2018-07-14T17:57:20.000Z,100521
2018-07-14T17:59:20.000Z,100523
2018-07-14T18:01:20.000Z,100521
2018-07-14T18:02:50.000Z,100524
2018-07-14T18:04:20.000Z,100523
2018-07-14T18:05:20.000Z,100529
2018-07-14T18:06:20.000Z,100527
2018-07-14T18:08:20.000Z,100525
2018-07-14T18:10:05.000Z,100528
2018-07-14T18:11:20.000Z,100522
2018-07-14T18:13:20.000Z,100522
2018-07-14T18:15:20.000Z,100524
2018-07-14T18:17:20.000Z,100533
2018-07-14T18:18:20.000Z,100526
2018-07-14T18:20:20.000Z,100528
2018-07-14T18:21:20.000Z,100525
2018-07-14T18:23:20.000Z,100527
2018-07-14T18:24:20.000Z,100527
2018-07-14T18:26:20.000Z,100532
2018-07-14T18:28:20.000Z,100528
2018-07-14T18:30:05.000Z,100528
2018-07-14T18:31:20.000Z,100527
2018-07-14T18:32:21.000Z,100531
2018-07-14T18:34:20.000Z,100528
2018-07-14T18:36:20.000Z,100524
2018-07-14T18:38:20.000Z,100527
2018-07-14T18:40:05.000Z,100524
2018-07-14T18:41:20.000Z,100528
2018-07-14T18:43:20.000Z,100530
2018-07-14T18:45:20.000Z,100533
2018-07-14T18:46:20.000Z,100526
2018-07-14T18:48:20.000Z,100528
2018-07-14T18:50:20.000Z,100529
2018-07-14T18:52:20.000Z,100532
2018-07-14T18:54:05.000Z,100537
2018-07-14T18:55:20.000Z,100543
2018-07-14T18:56:20.000Z,100543
2018-07-14T18:57:20.000Z,100539
2018-07-14T18:58:20.000Z,100544
2018-07-14T19:00:20.000Z,100547
2018-07-14T19:02:20.000Z,100548
2018-07-14T19:04:20.000Z,100549
2018-07-14T19:06:20.000Z,100547
2018-07-14T19:07:20.000Z,100548
2018-07-14T19:08:20.000Z,100546
2018-07-14T19:10:20.000Z,100546
2018-07-14T19:12:05.000Z,100553
2018-07-14T19:13:20.000Z,100555
2018-07-14T19:14:20.000Z,100556
2018-07-14T19:16:20.000Z,100552
2018-07-14T19:17:20.000Z,100561
2018-07-14T19:19:20.000Z,100557
2018-07-14T19:21:20.000Z,100562
2018-07-14T19:23:20.000Z,100556
2018-07-14T19:24:20.000Z,100560
2018-07-14T19:26:20.000Z,100564
2018-07-14T19:27:20.000Z,100565
2018-07-14T19:29:20.000Z,100568
2018-07-14T19:30:20.000Z,100564
2018-07-14T19:31:50.000Z,100570
2018-07-14T19:33:20.000Z,100570
2018-07-14T19:34:20.000Z,100564
2018-07-14T19:35:20.000Z,100567
2018-07-14T19:37:05.000Z,100569
2018-07-14T19:38:20.000Z,100561
2018-07-14T19:40:20.000Z,100569
2018-07-14T19:42:20.000Z,100564
2018-07-14T19:44:21.000Z,100572
2018-07-14T19:46:21.000Z,100573
2018-07-14T19:47:21.000Z,100573
2018-07-14T19:49:05.000Z,100573
2018-07-14T19:50:21.000Z,100570
2018-07-14T19:52:21.000Z,100579